createdAt,value
2023-03-11T00:01:50.367Z,21.27
2023-03-11T00:05:36.233Z,16.95
2023-03-11T00:09:18.286Z,16.88
2023-03-11T00:13:01.508Z,20.45
2023-03-11T00:16:43.582Z,16.63
2023-03-11T00:20:30.751Z,16.50
2023-03-11T00:24:12.838Z,13.38
2023-03-11T00:27:55.250Z,15.30
2023-03-11T00:31:37.322Z,15.93
2023-03-11T00:35:23.553Z,15.70
2023-03-11T00:39:11.216Z,15.73
2023-03-11T00:42:53.332Z,15.80
2023-03-11T00:46:35.390Z,18.98
2023-03-11T00:50:21.062Z,16.52
2023-03-11T00:54:03.178Z,14.70
2023-03-11T00:57:46.512Z,14.70
2023-03-11T01:01:28.596Z,14.80
2023-03-11T01:05:11.247Z,14.93
2023-03-11T01:08:53.241Z,21.17
2023-03-11T01:12:35.242Z,18.05
2023-03-11T01:16:17.384Z,22.50
2023-03-11T01:19:59.949Z,21.33
2023-03-11T01:23:43.023Z,22.85
2023-03-11T01:27:25.728Z,19.20
2023-03-11T01:31:09.921Z,17.87
2023-03-11T01:34:52.093Z,16.83
2023-03-11T01:38:34.223Z,17.88
2023-03-11T01:42:16.327Z,16.33
2023-03-11T01:45:58.421Z,17.70
2023-03-11T01:49:43.834Z,16.98
2023-03-11T01:53:26.095Z,15.23
2023-03-11T01:57:11.586Z,14.15
2023-03-11T02:00:55.494Z,13.63
2023-03-11T02:04:38.220Z,16.88
2023-03-11T02:08:20.205Z,15.80
2023-03-11T02:12:04.130Z,16.00
2023-03-11T02:15:46.602Z,15.25
2023-03-11T02:19:56.317Z,14.27
2023-03-11T02:24:20.498Z,14.68
2023-03-11T02:28:05.761Z,16.00
2023-03-11T02:31:49.053Z,17.77
2023-03-11T02:35:31.893Z,15.88
2023-03-11T02:39:13.990Z,14.30
2023-03-11T02:43:01.739Z,16.77
2023-03-11T02:46:44.720Z,15.00
2023-03-11T02:50:28.710Z,17.27
2023-03-11T02:54:10.785Z,16.00
2023-03-11T02:57:55.281Z,18.33
2023-03-11T03:01:37.369Z,14.45
2023-03-11T03:05:21.188Z,15.98
2023-03-11T03:09:03.988Z,17.63
2023-03-11T03:12:46.021Z,17.58
2023-03-11T03:16:28.033Z,17.52
2023-03-11T03:20:12.302Z,14.77
2023-03-11T03:23:54.359Z,20.60
2023-03-11T03:27:36.719Z,16.30
2023-03-11T03:31:18.756Z,13.98
2023-03-11T03:35:02.321Z,16.23
2023-03-11T03:38:44.448Z,14.82
2023-03-11T03:42:27.356Z,18.27
2023-03-11T03:46:09.393Z,15.23
2023-03-11T03:49:51.545Z,13.13
2023-03-11T03:53:37.395Z,16.17
2023-03-11T03:57:19.431Z,18.15
2023-03-11T04:01:01.642Z,13.63
2023-03-11T04:04:43.658Z,14.70
2023-03-11T04:08:25.745Z,13.43
2023-03-11T04:12:08.205Z,14.50
2023-03-11T04:15:50.343Z,13.30
2023-03-11T04:19:33.054Z,17.02
2023-03-11T04:23:15.262Z,15.00
2023-03-11T04:26:57.308Z,15.10
2023-03-11T04:30:40.152Z,13.18
2023-03-11T04:34:22.294Z,14.57
2023-03-11T04:38:04.213Z,13.93
2023-03-11T04:41:46.634Z,15.85
2023-03-11T04:45:28.649Z,14.60
2023-03-11T04:49:10.822Z,13.60
2023-03-11T04:52:52.794Z,16.15
2023-03-11T04:56:35.242Z,12.65
2023-03-11T05:00:23.072Z,13.77
2023-03-11T05:04:05.227Z,11.77
2023-03-11T05:07:47.659Z,15.32
2023-03-11T05:11:29.644Z,13.90
2023-03-11T05:15:11.937Z,11.50
2023-03-11T05:18:53.931Z,14.70
2023-03-11T05:22:36.645Z,12.85
2023-03-11T05:26:18.691Z,14.60
2023-03-11T05:30:00.602Z,11.98
2023-03-11T05:33:42.667Z,10.83
2023-03-11T05:37:24.718Z,12.07
2023-03-11T05:41:06.762Z,11.93
2023-03-11T05:44:48.852Z,11.80
2023-03-11T05:48:31.386Z,13.77
2023-03-11T05:52:13.513Z,15.45
2023-03-11T05:55:59.841Z,10.77
2023-03-11T05:59:41.860Z,13.25
2023-03-11T06:03:23.923Z,9.52
2023-03-11T06:07:06.014Z,8.93
2023-03-11T06:10:49.048Z,14.47
2023-03-11T06:14:32.798Z,11.07
2023-03-11T06:18:14.860Z,10.73
2023-03-11T06:21:57.025Z,11.70
2023-03-11T06:25:39.138Z,9.43
2023-03-11T06:29:24.486Z,10.60
2023-03-11T06:33:06.514Z,9.63
2023-03-11T06:36:48.504Z,11.80
2023-03-11T06:40:30.534Z,10.27
2023-03-11T06:44:12.923Z,10.50
2023-03-11T06:47:54.872Z,21.40
2023-03-11T06:51:36.810Z,12.27
2023-03-11T06:55:24.682Z,12.65
2023-03-11T06:59:06.579Z,13.30
2023-03-11T07:02:49.067Z,9.15
2023-03-11T07:06:31.094Z,10.05
2023-03-11T07:10:13.157Z,12.40
2023-03-11T07:13:55.646Z,9.77
2023-03-11T07:17:37.742Z,8.70
2023-03-11T07:34:04.740Z,9.32
2023-03-11T07:37:46.738Z,11.27
2023-03-11T07:49:50.561Z,9.67
2023-03-11T07:54:20.601Z,10.57
2023-03-11T08:23:38.520Z,10.23
2023-03-11T09:05:19.901Z,9.75
2023-03-11T09:09:50.046Z,9.63
2023-03-11T09:13:41.099Z,9.13
2023-03-11T09:22:13.284Z,9.25
2023-03-11T09:26:02.124Z,11.23
2023-03-11T09:30:06.138Z,10.03
2023-03-11T09:33:55.667Z,11.05
2023-03-11T09:38:02.184Z,8.60
2023-03-11T09:41:58.284Z,5.80
2023-03-11T10:04:33.027Z,8.63
2023-03-11T10:21:56.546Z,5.72
2023-03-11T10:26:27.813Z,11.40
2023-03-11T10:39:23.982Z,6.20
2023-03-11T11:01:57.999Z,10.75
2023-03-11T15:59:22.382Z,10.68
2023-03-11T18:22:28.038Z,6.80
2023-03-11T18:26:14.971Z,7.10
2023-03-11T18:29:58.928Z,7.50
2023-03-11T18:33:42.551Z,7.40
2023-03-11T18:37:25.476Z,7.00
2023-03-11T18:41:10.872Z,7.80
2023-03-11T18:44:54.959Z,10.32
2023-03-11T18:48:38.870Z,9.27
2023-03-11T18:52:21.530Z,8.93
2023-03-11T18:56:11.180Z,7.38
2023-03-11T18:59:53.644Z,8.18
2023-03-11T19:03:41.040Z,8.47
2023-03-11T19:07:25.893Z,7.55
2023-03-11T19:11:16.953Z,7.22
2023-03-11T19:15:11.642Z,7.17
2023-03-11T21:42:25.537Z,9.95
2023-03-11T21:46:47.122Z,12.20
2023-03-11T21:50:37.766Z,11.27
2023-03-11T21:54:56.596Z,10.63
2023-03-11T21:59:13.792Z,15.65
2023-03-11T22:03:01.681Z,15.07
2023-03-11T22:07:06.085Z,14.47
2023-03-11T22:15:37.547Z,11.88
2023-03-11T22:19:33.797Z,14.93
2023-03-11T22:23:28.060Z,15.23
2023-03-11T22:27:10.400Z,15.48
2023-03-11T22:30:59.252Z,14.23
2023-03-11T22:34:53.985Z,16.45
2023-03-11T22:38:43.384Z,16.88
2023-03-11T22:42:28.911Z,21.02
2023-03-11T22:46:13.903Z,19.07
2023-03-11T22:50:04.343Z,28.00
2023-03-11T22:54:19.941Z,24.60
2023-03-11T22:58:04.545Z,24.80
2023-03-11T23:01:49.058Z,21.55
2023-03-11T23:05:31.638Z,20.60
2023-03-11T23:09:25.196Z,21.70
2023-03-11T23:13:07.713Z,21.35
2023-03-11T23:16:49.984Z,13.50
2023-03-11T23:20:42.421Z,18.92
2023-03-11T23:24:26.909Z,14.93
2023-03-11T23:28:12.379Z,16.17
2023-03-11T23:31:57.710Z,12.70
2023-03-11T23:35:44.708Z,12.83
2023-03-11T23:39:30.036Z,10.23
2023-03-11T23:43:13.406Z,8.30
2023-03-11T23:46:55.620Z,11.60
2023-03-11T23:50:37.699Z,7.10
2023-03-11T23:54:20.400Z,9.43
2023-03-11T23:58:02.949Z,9.25
